South Shore, South Dakota
Current Conditions -  °F | °C
As of 3:53 AM on Friday 24 Oct 2014 (Local Time) from KATY Reporting Station
Clear Clear  
Wind Chill: 42°   Ceiling: Unl
Heat Index: 45°   Visibility: 10mi
Dew Point: 43°   Wind: 6mph
Humidity: 93%   Direction: 160°SSE
Pressure: 29.84"   Gusts: NA
Location:  45.11°N, 96.93°W
Report Text: KATY 240853Z AUTO 16005KT 10SM CLR 07/06 A2984 RMK AO2 SLP106 T00720061 56005
Loading
Personal Weather Stations






























Interactive Weather Map
Tropical Storm Tracking
New forecast layout! Learn more

10-Day Weather Forecast

Advertisements
Track Severe Weather on mobile